createdAt,value
2017-05-09T00:00:14.500Z,55.00
2017-05-09T00:01:12.772Z,55.08
2017-05-09T00:02:12.964Z,55.11
2017-05-09T00:03:12.212Z,55.06
2017-05-09T00:04:12.903Z,55.12
2017-05-09T00:05:13.578Z,55.07
2017-05-09T00:06:13.286Z,55.14
2017-05-09T00:07:11.397Z,55.06
2017-05-09T00:08:12.388Z,54.33
2017-05-09T00:09:15.181Z,54.95
2017-05-09T00:10:13.958Z,55.05
2017-05-09T00:11:12.973Z,55.11
2017-05-09T00:12:12.737Z,55.11
2017-05-09T00:13:13.511Z,55.18
2017-05-09T00:14:13.821Z,55.17
2017-05-09T00:15:15.980Z,55.28
2017-05-09T00:16:13.838Z,55.18
2017-05-09T00:17:13.710Z,55.19
2017-05-09T00:18:14.437Z,55.17
2017-05-09T00:19:12.471Z,55.22
2017-05-09T00:20:10.542Z,55.25
2017-05-09T00:21:12.918Z,54.59
2017-05-09T00:22:11.300Z,55.07
2017-05-09T00:23:13.269Z,55.18
2017-05-09T00:24:12.827Z,55.18
2017-05-09T00:25:13.100Z,55.22
2017-05-09T00:26:10.152Z,55.22
2017-05-09T00:27:14.666Z,55.27
2017-05-09T00:28:13.696Z,55.28
2017-05-09T00:29:10.926Z,55.26
2017-05-09T00:30:12.438Z,55.26
2017-05-09T00:31:13.119Z,55.23
2017-05-09T00:32:13.773Z,55.10
2017-05-09T00:33:13.154Z,54.39
2017-05-09T00:34:12.788Z,54.22
2017-05-09T00:35:12.962Z,54.20
2017-05-09T00:36:12.397Z,54.10
2017-05-09T00:37:13.827Z,54.05
2017-05-09T00:38:13.658Z,54.05
2017-05-09T00:39:11.707Z,54.05
2017-05-09T00:40:14.157Z,54.08
2017-05-09T00:41:12.864Z,54.07
2017-05-09T00:42:14.477Z,54.06
2017-05-09T00:43:10.761Z,54.10
2017-05-09T00:44:12.946Z,54.96
2017-05-09T00:45:11.875Z,55.08
2017-05-09T00:46:11.667Z,55.21
2017-05-09T00:47:12.422Z,55.23
2017-05-09T00:48:12.558Z,55.25
2017-05-09T00:49:13.037Z,55.25
2017-05-09T00:50:12.130Z,55.30
2017-05-09T00:51:12.208Z,55.36
2017-05-09T00:52:12.792Z,55.36
2017-05-09T00:53:13.879Z,55.41
2017-05-09T00:54:13.795Z,55.39
2017-05-09T00:55:13.548Z,55.38
2017-05-09T00:56:10.914Z,55.39
2017-05-09T00:57:11.961Z,54.55
2017-05-09T00:58:10.185Z,54.47
2017-05-09T00:59:11.292Z,55.19
2017-05-09T01:00:11.093Z,55.30
2017-05-09T01:01:12.478Z,55.37
2017-05-09T01:02:14.026Z,55.42
2017-05-09T01:03:12.225Z,55.38
2017-05-09T01:04:11.243Z,55.42
2017-05-09T01:05:12.981Z,55.39
2017-05-09T01:06:12.983Z,55.44
2017-05-09T01:07:12.097Z,55.44
2017-05-09T01:08:12.309Z,55.44
2017-05-09T01:09:12.698Z,55.45
2017-05-09T01:10:11.692Z,55.45
2017-05-09T01:11:13.442Z,55.44
2017-05-09T01:12:13.315Z,55.47
2017-05-09T01:13:11.486Z,55.47
2017-05-09T01:14:09.914Z,55.51
2017-05-09T01:15:12.452Z,55.45
2017-05-09T01:16:12.627Z,55.45
2017-05-09T01:17:13.657Z,55.51
2017-05-09T01:18:15.116Z,55.55
2017-05-09T01:19:12.773Z,55.53
2017-05-09T01:20:11.026Z,55.56
2017-05-09T01:21:12.994Z,55.63
2017-05-09T01:22:12.788Z,55.59
2017-05-09T01:23:13.626Z,55.59
2017-05-09T01:24:13.258Z,55.59
2017-05-09T01:25:14.113Z,55.57
2017-05-09T01:26:12.997Z,55.59
2017-05-09T01:27:12.788Z,55.61
2017-05-09T01:28:12.960Z,55.61
2017-05-09T01:29:12.235Z,55.61
2017-05-09T01:30:13.424Z,55.64
2017-05-09T01:31:12.642Z,55.67
2017-05-09T01:32:13.829Z,55.64
2017-05-09T01:33:14.490Z,55.64
2017-05-09T01:34:12.963Z,55.65
2017-05-09T01:35:11.191Z,55.68
2017-05-09T01:36:11.617Z,55.68
2017-05-09T01:37:13.407Z,55.70
2017-05-09T01:38:12.589Z,55.70
2017-05-09T01:39:15.211Z,55.72
2017-05-09T01:40:12.948Z,55.81
2017-05-09T01:41:11.436Z,55.74
2017-05-09T01:42:11.146Z,55.75
2017-05-09T01:43:14.156Z,55.70
2017-05-09T01:44:11.339Z,55.77
2017-05-09T01:45:12.653Z,55.79
2017-05-09T01:46:14.047Z,55.77
2017-05-09T01:47:11.388Z,55.72
2017-05-09T01:48:14.115Z,55.77
2017-05-09T01:49:13.887Z,55.76
2017-05-09T01:50:13.699Z,55.75
2017-05-09T01:51:13.662Z,55.77
2017-05-09T01:52:12.685Z,55.81
2017-05-09T01:53:11.092Z,55.81
2017-05-09T01:54:12.690Z,55.04
2017-05-09T01:55:13.714Z,54.89
2017-05-09T01:56:14.109Z,55.51
2017-05-09T01:57:13.122Z,55.70
2017-05-09T01:58:11.286Z,55.75
2017-05-09T01:59:13.527Z,55.75
2017-05-09T02:00:13.222Z,55.79
2017-05-09T02:01:12.569Z,55.79
2017-05-09T02:02:12.727Z,55.84
2017-05-09T02:03:12.967Z,55.86
2017-05-09T02:04:12.646Z,55.84
2017-05-09T02:05:12.815Z,55.85
2017-05-09T02:06:13.595Z,55.83
2017-05-09T02:07:13.515Z,55.85
2017-05-09T02:08:13.167Z,55.85
2017-05-09T02:09:12.996Z,55.87
2017-05-09T02:10:12.384Z,55.85
2017-05-09T02:11:13.291Z,55.91
2017-05-09T02:12:12.387Z,55.93
2017-05-09T02:13:13.277Z,55.85
2017-05-09T02:14:12.873Z,55.94
2017-05-09T02:15:13.118Z,55.87
2017-05-09T02:16:12.879Z,55.87
2017-05-09T02:17:14.826Z,55.91
2017-05-09T02:18:11.129Z,55.93
2017-05-09T02:19:14.110Z,55.07
2017-05-09T02:20:12.207Z,54.86
2017-05-09T02:21:13.175Z,55.11
2017-05-09T02:22:13.735Z,55.70
2017-05-09T02:23:13.125Z,55.76
2017-05-09T02:24:12.177Z,55.85
2017-05-09T02:25:12.788Z,55.88
2017-05-09T02:26:11.645Z,55.93
2017-05-09T02:27:13.001Z,55.08
2017-05-09T02:28:13.542Z,54.95
2017-05-09T02:29:12.825Z,55.68
2017-05-09T02:30:12.942Z,55.89
2017-05-09T02:31:12.407Z,55.91
2017-05-09T02:32:13.410Z,55.98
2017-05-09T02:33:12.697Z,55.99
2017-05-09T02:34:13.526Z,56.00
2017-05-09T02:35:11.206Z,56.00
2017-05-09T02:36:14.127Z,55.98
2017-05-09T02:37:14.084Z,55.99
2017-05-09T02:38:11.891Z,55.78
2017-05-09T02:39:11.302Z,55.11
2017-05-09T02:40:13.719Z,54.98
2017-05-09T02:41:13.151Z,54.87
2017-05-09T02:42:13.943Z,54.82
2017-05-09T02:43:12.232Z,54.78
2017-05-09T02:44:11.335Z,54.79
2017-05-09T02:45:13.453Z,54.79
2017-05-09T02:46:11.575Z,54.91
2017-05-09T02:47:12.824Z,55.60
2017-05-09T02:48:13.101Z,55.78
2017-05-09T02:49:12.743Z,55.84
2017-05-09T02:50:13.529Z,55.91
2017-05-09T02:51:12.999Z,55.93
2017-05-09T02:52:10.678Z,55.93
2017-05-09T02:53:12.693Z,55.95
2017-05-09T02:54:13.157Z,55.94
2017-05-09T02:55:12.726Z,55.98
2017-05-09T02:56:10.976Z,56.03
2017-05-09T02:57:13.102Z,56.01
2017-05-09T02:58:13.757Z,55.99
2017-05-09T02:59:13.464Z,55.99
2017-05-09T03:00:13.613Z,55.99
2017-05-09T03:01:15.309Z,56.00
2017-05-09T03:02:12.872Z,55.99
2017-05-09T03:03:13.620Z,56.01
2017-05-09T03:04:16.463Z,55.99
2017-05-09T03:05:13.607Z,55.98
2017-05-09T03:06:09.846Z,56.02
2017-05-09T03:07:14.155Z,56.02
2017-05-09T03:08:13.176Z,56.01
2017-05-09T03:09:13.076Z,56.06
2017-05-09T03:10:14.038Z,56.02
2017-05-09T03:11:11.142Z,56.04
2017-05-09T03:12:18.689Z,56.02
2017-05-09T03:13:12.967Z,56.03
2017-05-09T03:14:10.290Z,56.02
2017-05-09T03:15:13.507Z,56.03
2017-05-09T03:16:12.806Z,56.00
2017-05-09T03:17:12.211Z,56.05
2017-05-09T03:18:13.752Z,55.15
2017-05-09T03:19:13.463Z,55.03
2017-05-09T03:20:12.807Z,55.79
2017-05-09T03:21:12.915Z,55.89
2017-05-09T03:22:14.792Z,55.97
2017-05-09T03:23:13.202Z,56.02
2017-05-09T03:24:12.962Z,56.01
2017-05-09T03:25:10.825Z,56.01
2017-05-09T03:26:12.607Z,56.05
2017-05-09T03:27:13.095Z,56.05
2017-05-09T03:28:11.177Z,55.93
2017-05-09T03:29:12.408Z,56.07
2017-05-09T03:30:11.516Z,56.09
2017-05-09T03:31:12.775Z,56.08
2017-05-09T03:32:13.066Z,56.12
2017-05-09T03:33:13.682Z,55.99
2017-05-09T03:34:13.570Z,55.28
2017-05-09T03:35:14.662Z,55.10
2017-05-09T03:36:13.244Z,55.04
2017-05-09T03:37:13.751Z,54.97
2017-05-09T03:38:13.322Z,54.98
2017-05-09T03:39:11.621Z,54.93
2017-05-09T03:40:12.966Z,55.79
2017-05-09T03:41:12.770Z,55.97
2017-05-09T03:42:13.832Z,56.06
2017-05-09T03:43:13.593Z,56.11
2017-05-09T03:44:13.297Z,56.12
2017-05-09T03:45:12.685Z,56.15
2017-05-09T03:46:13.701Z,56.14
2017-05-09T03:47:13.233Z,56.19
2017-05-09T03:48:12.466Z,56.21
2017-05-09T03:49:13.450Z,56.22
2017-05-09T03:50:09.911Z,56.26
2017-05-09T03:51:13.040Z,56.20
2017-05-09T03:52:12.576Z,56.21
2017-05-09T03:53:11.952Z,56.25
2017-05-09T03:54:11.316Z,56.24
2017-05-09T03:55:11.781Z,56.32
2017-05-09T03:56:14.096Z,56.27
2017-05-09T03:57:14.375Z,56.24
2017-05-09T03:58:10.826Z,56.25
2017-05-09T03:59:12.808Z,56.25
2017-05-09T04:00:12.893Z,56.24
2017-05-09T04:01:13.265Z,56.27
2017-05-09T04:02:14.205Z,56.29
2017-05-09T04:03:13.500Z,56.29
2017-05-09T04:04:13.709Z,56.28
2017-05-09T04:05:12.968Z,56.32
2017-05-09T04:06:13.854Z,56.32
2017-05-09T04:07:13.206Z,56.36
2017-05-09T04:08:13.055Z,56.28
2017-05-09T04:09:10.791Z,56.33
2017-05-09T04:10:14.047Z,56.33
2017-05-09T04:11:13.818Z,56.31
2017-05-09T04:12:13.616Z,56.33
2017-05-09T04:13:12.796Z,56.30
2017-05-09T04:14:12.989Z,56.32
2017-05-09T04:15:12.672Z,56.35
2017-05-09T04:16:13.797Z,56.30
2017-05-09T04:17:13.550Z,56.20
2017-05-09T04:18:12.799Z,55.44
2017-05-09T04:19:11.735Z,55.19
2017-05-09T04:20:13.647Z,55.19
2017-05-09T04:21:15.718Z,55.13
2017-05-09T04:22:11.280Z,55.16
2017-05-09T04:23:13.263Z,55.98
2017-05-09T04:24:14.037Z,56.12
2017-05-09T04:25:14.005Z,56.23
2017-05-09T04:26:12.809Z,56.28
2017-05-09T04:27:11.683Z,56.28
2017-05-09T04:28:12.481Z,56.31
2017-05-09T04:29:13.335Z,56.33
2017-05-09T04:30:13.105Z,56.32
2017-05-09T04:31:13.082Z,56.32
2017-05-09T04:32:12.756Z,56.38
2017-05-09T04:33:12.880Z,56.34
2017-05-09T04:34:14.567Z,56.34
2017-05-09T04:35:12.718Z,56.32
2017-05-09T04:36:13.611Z,56.33
2017-05-09T04:37:13.444Z,56.36
2017-05-09T04:38:10.018Z,56.34
2017-05-09T04:39:11.345Z,56.26
2017-05-09T04:40:13.183Z,55.53
2017-05-09T04:41:12.428Z,55.61
2017-05-09T04:42:13.089Z,56.14
2017-05-09T04:43:12.990Z,56.23
2017-05-09T04:44:12.244Z,56.29
2017-05-09T04:45:12.949Z,56.31
2017-05-09T04:46:13.993Z,56.35
2017-05-09T04:47:12.739Z,56.37
2017-05-09T04:48:13.544Z,56.39
2017-05-09T04:49:12.593Z,56.39
2017-05-09T04:50:14.249Z,56.41
2017-05-09T04:51:12.252Z,56.37
2017-05-09T04:52:12.892Z,56.25
2017-05-09T04:53:13.014Z,55.54
2017-05-09T04:54:12.918Z,55.34
2017-05-09T04:55:14.362Z,55.40
2017-05-09T04:56:13.362Z,56.05
2017-05-09T04:57:10.792Z,56.24
2017-05-09T04:58:10.078Z,56.28
2017-05-09T04:59:12.772Z,56.21
2017-05-09T05:00:13.688Z,55.56
2017-05-09T05:01:12.880Z,56.18
2017-05-09T05:02:11.817Z,56.32
2017-05-09T05:03:12.226Z,55.65
2017-05-09T05:04:12.966Z,56.26
2017-05-09T05:05:10.204Z,56.33
2017-05-09T05:06:12.952Z,56.35
2017-05-09T05:07:12.290Z,56.43
2017-05-09T05:08:13.174Z,56.44
2017-05-09T05:09:13.318Z,56.42
2017-05-09T05:10:12.497Z,56.41
2017-05-09T05:11:11.304Z,56.44
2017-05-09T05:12:13.211Z,56.48
2017-05-09T05:13:13.440Z,56.42
2017-05-09T05:14:11.566Z,56.44
2017-05-09T05:15:13.249Z,56.43
2017-05-09T05:16:10.359Z,56.54
2017-05-09T05:17:12.680Z,56.46
2017-05-09T05:18:11.045Z,56.46
2017-05-09T05:19:12.772Z,56.46
2017-05-09T05:20:12.773Z,56.50
2017-05-09T05:21:11.538Z,56.48
2017-05-09T05:22:11.203Z,56.47
2017-05-09T05:23:13.189Z,55.59
2017-05-09T05:24:10.403Z,55.44
2017-05-09T05:25:13.561Z,56.22
2017-05-09T05:26:13.134Z,56.41
2017-05-09T05:27:12.723Z,56.47
2017-05-09T05:28:11.646Z,56.46
2017-05-09T05:29:13.870Z,55.47
2017-05-09T05:30:14.111Z,55.40
2017-05-09T05:31:14.744Z,55.42
2017-05-09T05:32:13.496Z,55.39
2017-05-09T05:33:14.503Z,56.18
2017-05-09T05:34:13.610Z,56.35
2017-05-09T05:35:11.414Z,56.46
2017-05-09T05:36:12.990Z,56.43
2017-05-09T05:37:12.976Z,56.51
2017-05-09T05:38:12.847Z,56.49
2017-05-09T05:39:14.684Z,56.51
2017-05-09T05:40:14.422Z,56.52
2017-05-09T05:41:13.193Z,56.53
2017-05-09T05:42:12.628Z,56.52
2017-05-09T05:43:13.508Z,56.52
2017-05-09T05:44:11.361Z,56.56
2017-05-09T05:45:13.692Z,56.52
2017-05-09T05:46:13.566Z,56.56
2017-05-09T05:47:13.465Z,56.54
2017-05-09T05:48:13.184Z,56.54
2017-05-09T05:49:12.987Z,56.55
2017-05-09T05:50:12.955Z,56.56
2017-05-09T05:51:12.238Z,56.60
2017-05-09T05:52:13.691Z,56.53
2017-05-09T05:53:13.572Z,56.58
2017-05-09T05:54:13.320Z,56.53
2017-05-09T05:55:12.707Z,56.53
2017-05-09T05:56:14.524Z,56.55
2017-05-09T05:57:10.375Z,56.60
2017-05-09T05:58:13.022Z,56.60
2017-05-09T05:59:13.197Z,56.62
2017-05-09T06:00:12.917Z,56.54
2017-05-09T06:01:13.409Z,56.62
2017-05-09T06:02:13.519Z,56.55
2017-05-09T06:03:12.949Z,56.57
2017-05-09T06:04:13.748Z,56.57
2017-05-09T06:05:13.616Z,56.60
2017-05-09T06:06:14.700Z,56.57
2017-05-09T06:07:13.793Z,56.56
2017-05-09T06:08:14.758Z,56.61
2017-05-09T06:09:13.533Z,56.55
2017-05-09T06:10:10.823Z,56.58
2017-05-09T06:11:13.006Z,56.57
2017-05-09T06:12:13.071Z,56.59
2017-05-09T06:13:12.283Z,56.59
2017-05-09T06:14:12.979Z,56.59
2017-05-09T06:15:12.809Z,56.61
2017-05-09T06:16:11.642Z,56.59
2017-05-09T06:17:13.942Z,56.62
2017-05-09T06:18:12.188Z,56.56
2017-05-09T06:19:12.866Z,56.59
2017-05-09T06:20:12.838Z,56.57
2017-05-09T06:21:13.609Z,56.57
2017-05-09T06:22:14.497Z,56.61
2017-05-09T06:23:12.233Z,56.44
2017-05-09T06:24:13.074Z,55.72
2017-05-09T06:25:12.821Z,55.53
2017-05-09T06:26:11.709Z,55.52
2017-05-09T06:27:13.782Z,56.28
2017-05-09T06:28:14.092Z,56.41
2017-05-09T06:29:12.206Z,56.47
2017-05-09T06:30:12.790Z,56.54
2017-05-09T06:31:12.407Z,56.55
2017-05-09T06:32:11.110Z,56.55
2017-05-09T06:33:18.903Z,56.56
2017-05-09T06:34:13.146Z,56.56
2017-05-09T06:35:10.573Z,56.58
2017-05-09T06:36:12.799Z,56.54
2017-05-09T06:37:13.371Z,56.58
2017-05-09T06:38:11.248Z,56.62
2017-05-09T06:39:12.941Z,56.57
2017-05-09T06:40:11.032Z,56.56
2017-05-09T06:41:12.645Z,55.71
2017-05-09T06:42:11.456Z,55.54
2017-05-09T06:43:10.244Z,55.45
2017-05-09T06:44:12.961Z,55.42
2017-05-09T06:45:12.984Z,55.42
2017-05-09T06:46:11.217Z,55.41
2017-05-09T06:47:13.295Z,55.36
2017-05-09T06:48:12.713Z,55.38
2017-05-09T06:49:10.768Z,55.37
2017-05-09T06:50:12.578Z,56.22
2017-05-09T06:51:12.519Z,56.39
2017-05-09T06:52:12.590Z,56.51
2017-05-09T06:53:11.365Z,56.54
2017-05-09T06:54:12.736Z,56.56
2017-05-09T06:55:11.927Z,56.44
2017-05-09T06:56:13.008Z,56.55
2017-05-09T06:57:12.795Z,56.48
2017-05-09T06:58:10.132Z,55.74
2017-05-09T06:59:12.649Z,55.78
2017-05-09T07:00:13.586Z,56.35
2017-05-09T07:01:13.274Z,56.48
2017-05-09T07:02:11.305Z,56.53
2017-05-09T07:03:12.928Z,56.60
2017-05-09T07:04:11.083Z,56.56
2017-05-09T07:05:12.749Z,56.57
2017-05-09T07:06:13.607Z,56.57
2017-05-09T07:07:12.732Z,56.61
2017-05-09T07:08:12.911Z,56.61
2017-05-09T07:09:13.123Z,56.58
2017-05-09T07:10:10.288Z,56.61
2017-05-09T07:11:10.587Z,56.57
2017-05-09T07:12:13.289Z,55.71
2017-05-09T07:13:13.216Z,55.53
2017-05-09T07:14:12.689Z,55.47
2017-05-09T07:15:13.118Z,55.42
2017-05-09T07:16:12.560Z,55.45
2017-05-09T07:17:13.240Z,55.39
2017-05-09T07:18:12.963Z,55.37
2017-05-09T07:19:12.605Z,55.38
2017-05-09T07:20:10.942Z,55.39
2017-05-09T07:21:12.218Z,56.26
2017-05-09T07:22:12.987Z,56.42
2017-05-09T07:23:14.859Z,56.52
2017-05-09T07:24:14.647Z,56.58
2017-05-09T07:25:13.172Z,56.57
2017-05-09T07:26:13.022Z,56.61
2017-05-09T07:27:14.313Z,56.60
2017-05-09T07:28:12.679Z,56.62
2017-05-09T07:29:15.519Z,56.67
2017-05-09T07:30:14.424Z,56.66
2017-05-09T07:31:12.933Z,56.67
2017-05-09T07:32:11.274Z,56.46
2017-05-09T07:33:09.617Z,55.80
2017-05-09T07:34:13.837Z,55.64
2017-05-09T07:35:13.419Z,55.53
2017-05-09T07:36:14.006Z,55.68
2017-05-09T07:37:11.371Z,56.34
2017-05-09T07:38:12.691Z,56.52
2017-05-09T07:39:13.775Z,56.56
2017-05-09T07:40:13.540Z,56.61
2017-05-09T07:41:12.773Z,56.60
2017-05-09T07:42:14.479Z,56.64
2017-05-09T07:43:11.721Z,56.65
2017-05-09T07:44:13.099Z,55.81
2017-05-09T07:45:13.149Z,56.48
2017-05-09T07:46:12.640Z,56.55
2017-05-09T07:47:13.471Z,56.61
2017-05-09T07:48:14.118Z,56.61
2017-05-09T07:49:13.361Z,56.68
2017-05-09T07:50:13.654Z,56.67
2017-05-09T07:51:15.655Z,56.68
2017-05-09T07:52:13.792Z,56.63
2017-05-09T07:53:14.046Z,56.70
2017-05-09T07:54:13.011Z,56.67
2017-05-09T07:55:12.212Z,56.69
2017-05-09T07:56:13.110Z,56.72
2017-05-09T07:57:09.543Z,56.74
2017-05-09T07:58:13.643Z,56.67
2017-05-09T07:59:11.873Z,56.74
2017-05-09T08:00:13.791Z,56.70
2017-05-09T08:01:13.688Z,56.77
2017-05-09T08:02:11.637Z,56.64
2017-05-09T08:03:11.180Z,55.87
2017-05-09T08:04:11.715Z,55.67
2017-05-09T08:05:14.504Z,55.60
2017-05-09T08:06:13.621Z,55.57
2017-05-09T08:07:11.353Z,55.52
2017-05-09T08:08:12.683Z,55.54
2017-05-09T08:09:09.903Z,55.49
2017-05-09T08:10:14.537Z,55.48
2017-05-09T08:11:13.446Z,55.45
2017-05-09T08:12:11.203Z,55.47
2017-05-09T08:13:12.582Z,55.69
2017-05-09T08:14:14.756Z,56.36
2017-05-09T08:15:11.022Z,56.47
2017-05-09T08:16:11.203Z,55.71
2017-05-09T08:17:13.430Z,56.42
2017-05-09T08:18:12.434Z,56.54
2017-05-09T08:19:13.343Z,56.61
2017-05-09T08:20:13.146Z,56.65
2017-05-09T08:21:12.765Z,56.68
2017-05-09T08:22:11.632Z,56.70
2017-05-09T08:23:11.273Z,56.70
2017-05-09T08:24:10.691Z,56.69
2017-05-09T08:25:13.016Z,55.81
2017-05-09T08:26:14.701Z,55.67
2017-05-09T08:27:12.897Z,55.58
2017-05-09T08:28:15.012Z,55.61
2017-05-09T08:29:12.803Z,56.34
2017-05-09T08:30:11.651Z,56.48
2017-05-09T08:31:12.831Z,56.59
2017-05-09T08:32:13.169Z,56.66
2017-05-09T08:33:11.010Z,56.69
2017-05-09T08:34:13.013Z,56.72
2017-05-09T08:35:12.870Z,56.74
2017-05-09T08:36:12.250Z,56.65
2017-05-09T08:37:12.592Z,55.90
2017-05-09T08:38:13.125Z,56.62
2017-05-09T08:39:12.288Z,56.70
2017-05-09T08:40:12.714Z,56.84
2017-05-09T08:41:13.740Z,57.04
2017-05-09T08:42:12.948Z,57.00
2017-05-09T08:43:12.771Z,56.83
2017-05-09T08:44:11.770Z,56.23
2017-05-09T08:45:13.328Z,55.96
2017-05-09T08:46:12.574Z,55.85
2017-05-09T08:47:13.222Z,55.79
2017-05-09T08:48:15.123Z,55.75
2017-05-09T08:49:13.305Z,56.58
2017-05-09T08:50:13.279Z,56.75
2017-05-09T08:51:13.077Z,56.83
2017-05-09T08:52:12.625Z,56.83
2017-05-09T08:53:13.308Z,56.93
2017-05-09T08:54:12.811Z,56.95
2017-05-09T08:55:11.888Z,57.02
2017-05-09T08:56:12.083Z,56.17
2017-05-09T08:57:13.273Z,56.19
2017-05-09T08:58:13.001Z,56.65
2017-05-09T08:59:12.592Z,57.17
2017-05-09T09:00:12.778Z,57.15
2017-05-09T09:01:13.560Z,57.73
2017-05-09T09:02:11.456Z,58.41
2017-05-09T09:03:13.485Z,59.11
2017-05-09T09:04:12.735Z,59.04
2017-05-09T09:05:12.762Z,58.99
2017-05-09T09:06:11.313Z,58.96
2017-05-09T09:07:12.695Z,58.75
2017-05-09T09:08:11.197Z,58.48
2017-05-09T09:09:12.724Z,57.67
2017-05-09T09:10:12.801Z,58.60
2017-05-09T09:11:13.426Z,58.53
2017-05-09T09:12:12.453Z,58.70
2017-05-09T09:13:11.200Z,56.01
2017-05-09T09:14:14.165Z,52.16
2017-05-09T09:15:12.952Z,47.27
2017-05-09T09:16:13.183Z,45.73
2017-05-09T09:17:11.405Z,45.25
2017-05-09T09:18:13.212Z,44.44
2017-05-09T09:19:12.673Z,43.81
2017-05-09T09:20:12.945Z,42.89
2017-05-09T09:21:12.789Z,43.20
2017-05-09T09:22:13.429Z,42.59
2017-05-09T09:23:16.823Z,41.75
2017-05-09T09:24:13.656Z,40.29
2017-05-09T09:25:14.120Z,39.85
2017-05-09T09:26:10.478Z,39.27
2017-05-09T09:27:11.492Z,40.06
2017-05-09T09:28:12.831Z,42.26
2017-05-09T09:29:13.828Z,41.79
2017-05-09T09:30:13.128Z,42.82
2017-05-09T09:31:13.059Z,42.49
2017-05-09T09:32:13.730Z,42.59
2017-05-09T09:33:13.486Z,42.92
2017-05-09T09:34:12.639Z,43.22
2017-05-09T09:35:12.917Z,42.33
2017-05-09T09:36:13.720Z,43.04
2017-05-09T09:37:12.950Z,43.80
2017-05-09T09:38:10.309Z,45.34
2017-05-09T09:39:09.606Z,45.22
2017-05-09T09:40:13.999Z,45.29
2017-05-09T09:41:13.375Z,45.57
2017-05-09T09:42:11.484Z,45.89
2017-05-09T09:43:11.537Z,46.70
2017-05-09T09:44:15.200Z,45.93
2017-05-09T09:45:13.206Z,46.00
2017-05-09T09:46:09.778Z,46.08
2017-05-09T09:47:13.602Z,46.74
2017-05-09T09:48:12.626Z,47.31
2017-05-09T09:49:14.419Z,47.38
2017-05-09T09:50:12.954Z,48.02
2017-05-09T09:51:12.554Z,48.58
2017-05-09T09:52:10.844Z,48.83
2017-05-09T09:53:10.597Z,48.98
2017-05-09T09:54:13.001Z,48.95
2017-05-09T09:55:12.612Z,49.03
2017-05-09T09:56:12.808Z,49.06
2017-05-09T09:57:13.810Z,49.09
2017-05-09T09:58:13.549Z,49.08
2017-05-09T09:59:12.784Z,49.10
2017-05-09T10:00:13.061Z,49.06
2017-05-09T10:01:09.950Z,49.10
2017-05-09T10:02:12.552Z,49.10
2017-05-09T10:03:12.937Z,49.10
2017-05-09T10:04:13.016Z,49.09
2017-05-09T10:05:12.749Z,49.10
2017-05-09T10:06:13.631Z,49.13
2017-05-09T10:07:12.030Z,49.08
2017-05-09T10:08:12.760Z,49.13
2017-05-09T10:09:13.178Z,49.21
2017-05-09T10:10:13.244Z,49.21
2017-05-09T10:11:13.838Z,49.19
2017-05-09T10:12:13.080Z,49.18
2017-05-09T10:13:11.095Z,49.21
2017-05-09T10:14:14.998Z,49.20
2017-05-09T10:15:12.748Z,49.24
2017-05-09T10:16:11.632Z,49.27
2017-05-09T10:17:13.474Z,49.27
2017-05-09T10:18:11.673Z,49.15
2017-05-09T10:19:13.010Z,48.47
2017-05-09T10:20:14.309Z,48.31
2017-05-09T10:21:13.661Z,48.28
2017-05-09T10:22:13.744Z,48.22
2017-05-09T10:23:13.912Z,48.23
2017-05-09T10:24:15.142Z,48.21
2017-05-09T10:25:12.446Z,48.24
2017-05-09T10:26:11.581Z,48.18
2017-05-09T10:27:11.735Z,48.22
2017-05-09T10:28:11.910Z,48.23
2017-05-09T10:29:12.050Z,48.31
2017-05-09T10:30:11.204Z,48.34
2017-05-09T10:31:12.827Z,48.49
2017-05-09T10:32:13.582Z,49.11
2017-05-09T10:33:13.154Z,49.34
2017-05-09T10:34:13.308Z,49.43
2017-05-09T10:35:13.161Z,49.53
2017-05-09T10:36:12.958Z,49.58
2017-05-09T10:37:12.715Z,49.60
2017-05-09T10:38:12.869Z,49.65
2017-05-09T10:39:13.675Z,49.73
2017-05-09T10:40:12.985Z,49.77
2017-05-09T10:41:12.457Z,49.82
2017-05-09T10:42:12.640Z,49.81
2017-05-09T10:43:12.953Z,49.82
2017-05-09T10:44:12.402Z,49.87
2017-05-09T10:45:09.823Z,49.93
2017-05-09T10:46:13.521Z,49.95
2017-05-09T10:47:11.474Z,49.98
2017-05-09T10:48:11.195Z,50.06
2017-05-09T10:49:12.792Z,50.04
2017-05-09T10:50:13.720Z,50.05
2017-05-09T10:51:13.430Z,50.10
2017-05-09T10:52:13.502Z,50.15
2017-05-09T10:53:13.307Z,50.15
2017-05-09T10:54:13.289Z,50.22
2017-05-09T10:55:12.686Z,50.20
2017-05-09T10:56:12.808Z,50.23
2017-05-09T10:57:13.259Z,50.26
2017-05-09T10:58:12.744Z,50.32
2017-05-09T10:59:13.480Z,50.32
2017-05-09T11:00:12.737Z,50.32
2017-05-09T11:01:12.954Z,50.38
2017-05-09T11:02:11.215Z,50.39
2017-05-09T11:03:12.532Z,50.44
2017-05-09T11:04:10.391Z,50.44
2017-05-09T11:05:10.147Z,50.43
2017-05-09T11:06:11.372Z,50.33
2017-05-09T11:07:14.234Z,49.70
2017-05-09T11:08:09.963Z,49.61
2017-05-09T11:09:12.449Z,49.69
2017-05-09T11:10:12.953Z,50.27
2017-05-09T11:11:12.417Z,49.64
2017-05-09T11:12:13.151Z,49.58
2017-05-09T11:13:12.752Z,50.29
2017-05-09T11:14:11.735Z,50.50
2017-05-09T11:15:13.642Z,50.63
2017-05-09T11:16:10.319Z,50.61
2017-05-09T11:17:12.636Z,50.69
2017-05-09T11:18:12.798Z,50.69
2017-05-09T11:19:10.994Z,50.78
2017-05-09T11:20:12.527Z,49.95
2017-05-09T11:21:13.960Z,49.92
2017-05-09T11:22:11.258Z,49.77
2017-05-09T11:23:12.304Z,49.80
2017-05-09T11:24:12.808Z,49.74
2017-05-09T11:25:14.436Z,50.59
2017-05-09T11:26:12.797Z,50.72
2017-05-09T11:27:14.163Z,50.81
2017-05-09T11:28:13.208Z,50.90
2017-05-09T11:29:12.986Z,50.92
2017-05-09T11:30:12.713Z,50.97
2017-05-09T11:31:11.890Z,50.97
2017-05-09T11:32:13.909Z,50.97
2017-05-09T11:33:13.162Z,51.02
2017-05-09T11:34:11.370Z,50.92
2017-05-09T11:35:11.293Z,50.30
2017-05-09T11:36:14.254Z,50.05
2017-05-09T11:37:14.860Z,50.05
2017-05-09T11:38:13.039Z,50.84
2017-05-09T11:39:13.258Z,50.99
2017-05-09T11:40:16.439Z,51.00
2017-05-09T11:41:13.188Z,51.05
2017-05-09T11:42:12.617Z,51.11
2017-05-09T11:43:10.400Z,51.16
2017-05-09T11:44:13.176Z,51.20
2017-05-09T11:45:12.749Z,51.24
2017-05-09T11:46:13.417Z,51.28
2017-05-09T11:47:12.783Z,51.33
2017-05-09T11:48:13.061Z,51.34
2017-05-09T11:49:13.001Z,51.38
2017-05-09T11:50:12.417Z,51.42
2017-05-09T11:51:10.731Z,51.44
2017-05-09T11:52:13.809Z,51.44
2017-05-09T11:53:13.913Z,51.49
2017-05-09T11:54:14.138Z,51.52
2017-05-09T11:55:12.904Z,51.53
2017-05-09T11:56:13.663Z,51.57
2017-05-09T11:57:13.037Z,51.60
2017-05-09T11:58:12.244Z,51.64
2017-05-09T11:59:12.859Z,51.63
2017-05-09T12:00:10.916Z,51.71
2017-05-09T12:01:11.336Z,51.69
2017-05-09T12:02:12.523Z,51.74
2017-05-09T12:03:12.787Z,51.74
2017-05-09T12:04:13.162Z,51.74
2017-05-09T12:05:13.117Z,51.80
2017-05-09T12:06:13.838Z,51.80
2017-05-09T12:07:12.150Z,51.69
2017-05-09T12:08:13.236Z,50.99
2017-05-09T12:09:12.983Z,50.90
2017-05-09T12:10:11.273Z,51.62
2017-05-09T12:11:13.512Z,50.93
2017-05-09T12:12:12.561Z,50.84
2017-05-09T12:13:11.530Z,50.78
2017-05-09T12:14:13.113Z,50.77
2017-05-09T12:15:12.526Z,50.75
2017-05-09T12:16:10.877Z,50.80
2017-05-09T12:17:12.394Z,50.73
2017-05-09T12:18:13.135Z,50.75
2017-05-09T12:19:11.285Z,50.74
2017-05-09T12:20:12.947Z,51.60
2017-05-09T12:21:11.124Z,51.76
2017-05-09T12:22:13.946Z,51.83
2017-05-09T12:23:11.109Z,51.87
2017-05-09T12:24:14.173Z,51.81
2017-05-09T12:25:13.195Z,51.91
2017-05-09T12:26:15.590Z,51.93
2017-05-09T12:27:12.968Z,51.95
2017-05-09T12:28:14.005Z,51.95
2017-05-09T12:29:09.408Z,52.00
2017-05-09T12:30:12.855Z,51.98
2017-05-09T12:31:13.217Z,52.00
2017-05-09T12:32:12.600Z,51.98
2017-05-09T12:33:09.717Z,52.01
2017-05-09T12:34:12.782Z,51.85
2017-05-09T12:35:12.997Z,51.18
2017-05-09T12:36:13.050Z,51.02
2017-05-09T12:37:10.896Z,50.94
2017-05-09T12:38:13.180Z,50.93
2017-05-09T12:39:14.083Z,51.21
2017-05-09T12:40:12.736Z,51.70
2017-05-09T12:41:12.609Z,51.84
2017-05-09T12:42:11.052Z,51.92
2017-05-09T12:43:14.121Z,51.98
2017-05-09T12:44:13.398Z,51.98
2017-05-09T12:45:13.189Z,52.00
2017-05-09T12:46:12.601Z,52.00
2017-05-09T12:47:14.481Z,52.02
2017-05-09T12:48:13.614Z,52.04
2017-05-09T12:49:10.220Z,52.07
2017-05-09T12:50:12.597Z,52.08
2017-05-09T12:51:11.591Z,52.06
2017-05-09T12:52:13.574Z,52.07